Terminal Aerodrome Forecast
Issued by NWS

Home | Current Version | Previous Version | Text Only | Print | Product List | Glossary On
Versions: 1 2 3 4 5 6 7 8 9 10 11 12 13 14 15 16 17 18 19 20 21 22 23 24 25 26 27 28 29 30 31 32 33 34 35 36 37 38 39 40
000
FTUS45 KBOU 261139
TAFAPA
TAF
KAPA 261139Z 2612/2712 07010KT P6SM -SHRA FEW005 BKN015 OVC040
      TEMPO 2614/2618 1SM -SHRA BR OVC005
     FM261800 10011KT 3SM -SHRA BR SCT006 OVC010
     FM270100 07010KT 3SM -SHRA BR SCT005 OVC008
     FM270600 05010KT 1SM -SHRA BR SCT004 OVC008=

USA.gov is the U.S. government's official web portal to all federal, state and local government web resources and services.